createdAt,value
2022-08-02T00:00:50.684Z,2.65
2022-08-02T00:03:22.319Z,2.47
2022-08-02T00:05:53.736Z,2.50
2022-08-02T00:08:20.891Z,3.03
2022-08-02T00:10:47.316Z,4.10
2022-08-02T00:13:13.661Z,2.47
2022-08-02T00:15:39.992Z,2.70
2022-08-02T00:18:06.333Z,2.95
2022-08-02T00:20:32.808Z,3.25
2022-08-02T00:22:59.162Z,3.90
2022-08-02T00:25:25.505Z,3.28
2022-08-02T00:27:51.932Z,3.15
2022-08-02T00:30:18.344Z,3.50
2022-08-02T00:32:44.833Z,3.20
2022-08-02T00:35:11.223Z,3.80
2022-08-02T00:37:41.434Z,5.40
2022-08-02T00:40:08.920Z,3.33
2022-08-02T00:42:35.289Z,3.50
2022-08-02T00:45:01.660Z,3.50
2022-08-02T00:47:28.013Z,3.28
2022-08-02T00:49:54.347Z,4.30
2022-08-02T00:52:21.997Z,3.60
2022-08-02T00:54:48.329Z,3.42
2022-08-02T00:57:14.694Z,3.38
2022-08-02T00:59:42.020Z,3.60
2022-08-02T01:02:09.546Z,3.65
2022-08-02T01:04:36.308Z,5.57
2022-08-02T01:07:12.820Z,3.80
2022-08-02T01:09:44.362Z,3.38
2022-08-02T01:12:11.519Z,3.67
2022-08-02T01:14:38.833Z,3.65
2022-08-02T01:17:08.146Z,4.03
2022-08-02T01:19:38.216Z,4.80
2022-08-02T01:22:59.411Z,4.35
2022-08-02T01:28:01.694Z,6.65
2022-08-02T01:30:29.786Z,4.05
2022-08-02T01:32:58.862Z,4.10
2022-08-02T01:35:28.223Z,4.90
2022-08-02T01:38:07.405Z,4.13
2022-08-02T01:40:36.068Z,4.40
2022-08-02T01:43:03.048Z,4.40
2022-08-02T01:45:33.637Z,4.47
2022-08-02T01:48:00.586Z,4.18
2022-08-02T01:50:28.169Z,6.38
2022-08-02T01:52:56.740Z,4.32
2022-08-02T01:55:34.864Z,4.07
2022-08-02T01:58:16.364Z,4.10
2022-08-02T02:00:43.309Z,5.28
2022-08-02T02:03:13.269Z,4.88
2022-08-02T02:05:40.188Z,4.00
2022-08-02T02:08:07.217Z,4.25
2022-08-02T02:10:35.490Z,4.47
2022-08-02T02:13:04.010Z,4.18
2022-08-02T02:15:31.377Z,4.32
2022-08-02T02:18:12.680Z,4.45
2022-08-02T02:20:41.114Z,4.55
2022-08-02T02:23:07.441Z,4.60
2022-08-02T02:25:36.532Z,6.60
2022-08-02T02:28:11.067Z,6.00
2022-08-02T02:30:39.064Z,4.65
2022-08-02T02:33:07.450Z,4.28
2022-08-02T02:35:36.714Z,4.80
2022-08-02T02:38:04.405Z,4.60
2022-08-02T02:40:31.533Z,4.35
2022-08-02T02:42:59.709Z,5.55
2022-08-02T02:45:26.558Z,4.40
2022-08-02T02:47:53.381Z,4.28
2022-08-02T02:50:21.594Z,5.32
2022-08-02T02:52:48.391Z,4.45
2022-08-02T02:55:15.094Z,4.05
2022-08-02T02:57:41.977Z,6.60
2022-08-02T03:00:09.599Z,4.30
2022-08-02T03:02:37.561Z,4.25
2022-08-02T03:05:04.150Z,5.30
2022-08-02T03:07:32.249Z,5.05
2022-08-02T03:09:58.681Z,5.38
2022-08-02T03:12:30.555Z,4.43
2022-08-02T03:14:58.743Z,4.72
2022-08-02T03:17:25.088Z,4.65
2022-08-02T03:19:51.426Z,4.47
2022-08-02T03:22:17.745Z,5.30
2022-08-02T03:24:44.118Z,5.30
2022-08-02T03:27:11.065Z,5.57
2022-08-02T03:29:37.407Z,4.43
2022-08-02T03:32:04.058Z,4.65
2022-08-02T03:34:30.594Z,4.60
2022-08-02T03:36:58.061Z,5.30
2022-08-02T03:39:25.129Z,5.35
2022-08-02T03:41:51.618Z,5.28
2022-08-02T03:44:18.166Z,5.82
2022-08-02T03:46:44.662Z,5.28
2022-08-02T03:49:11.340Z,6.97
2022-08-02T03:51:37.777Z,5.15
2022-08-02T03:54:04.266Z,4.90
2022-08-02T03:56:30.905Z,5.03
2022-08-02T03:59:07.730Z,5.55
2022-08-02T04:01:34.059Z,5.80
2022-08-02T04:04:00.485Z,6.28
2022-08-02T04:06:28.342Z,5.50
2022-08-02T04:08:54.976Z,5.47
2022-08-02T04:11:33.551Z,5.10
2022-08-02T04:14:01.535Z,5.90
2022-08-02T04:16:37.094Z,6.20
2022-08-02T04:19:05.440Z,5.53
2022-08-02T04:21:49.028Z,8.00
2022-08-02T04:24:20.581Z,10.88
2022-08-02T04:26:51.526Z,5.82
2022-08-02T04:29:18.453Z,5.72
2022-08-02T04:31:45.073Z,6.35
2022-08-02T04:34:15.072Z,5.43
2022-08-02T04:36:42.894Z,6.32
2022-08-02T04:39:09.250Z,5.78
2022-08-02T04:41:40.751Z,6.00
2022-08-02T04:44:10.461Z,5.35
2022-08-02T04:46:37.041Z,5.97
2022-08-02T04:49:03.447Z,5.03
2022-08-02T04:51:38.475Z,5.07
2022-08-02T04:54:06.332Z,5.80
2022-08-02T04:56:36.576Z,5.07
2022-08-02T04:59:02.909Z,5.22
2022-08-02T05:01:29.331Z,5.13
2022-08-02T05:03:55.663Z,5.60
2022-08-02T05:06:21.999Z,4.57
2022-08-02T05:08:52.899Z,4.75
2022-08-02T05:11:20.080Z,4.68
2022-08-02T05:13:58.863Z,5.28
2022-08-02T05:16:31.594Z,6.18
2022-08-02T05:18:59.473Z,4.50
2022-08-02T05:21:25.919Z,7.15
2022-08-02T05:23:52.277Z,5.85
2022-08-02T05:26:18.677Z,4.68
2022-08-02T05:28:45.005Z,4.63
2022-08-02T05:31:13.178Z,4.88
2022-08-02T05:33:40.081Z,5.38
2022-08-02T05:36:06.661Z,4.28
2022-08-02T05:38:36.828Z,4.90
2022-08-02T05:41:03.649Z,4.00
2022-08-02T05:43:30.291Z,4.20
2022-08-02T05:45:56.649Z,3.70
2022-08-02T05:48:25.427Z,4.32
2022-08-02T05:51:01.307Z,3.85
2022-08-02T05:53:34.253Z,3.60
2022-08-02T05:56:18.222Z,5.57
2022-08-02T06:01:13.384Z,4.07
2022-08-02T06:03:43.496Z,4.40
2022-08-02T06:06:14.021Z,4.38
2022-08-02T06:08:47.815Z,6.68
2022-08-02T06:11:16.437Z,3.05
2022-08-02T06:13:43.269Z,4.00
2022-08-02T06:16:13.960Z,3.50
2022-08-02T06:18:43.956Z,3.80
2022-08-02T06:22:29.890Z,3.85
2022-08-02T06:24:01.207Z,2.75
2022-08-02T06:26:28.113Z,3.80
2022-08-02T06:28:55.208Z,3.00
2022-08-02T06:31:21.682Z,3.10
2022-08-02T06:33:48.202Z,3.05
2022-08-02T06:36:33.474Z,3.67
2022-08-02T06:39:08.798Z,5.00
2022-08-02T06:41:43.116Z,9.13
2022-08-02T06:44:49.679Z,5.18
2022-08-02T06:47:11.241Z,8.18
2022-08-02T06:49:51.894Z,5.22
2022-08-02T06:52:30.079Z,3.47
2022-08-02T06:54:58.115Z,3.30
2022-08-02T06:57:24.448Z,3.65
2022-08-02T06:59:51.020Z,3.50
2022-08-02T07:02:17.404Z,4.20
2022-08-02T07:04:43.757Z,3.00
2022-08-02T07:07:10.072Z,6.03
2022-08-02T07:09:36.473Z,3.35
2022-08-02T07:12:02.897Z,3.30
2022-08-02T07:14:29.239Z,3.58
2022-08-02T07:16:55.588Z,6.43
2022-08-02T07:19:21.913Z,4.30
2022-08-02T07:22:01.974Z,2.55
2022-08-02T07:24:28.434Z,3.10
2022-08-02T07:27:10.435Z,4.03
2022-08-02T07:29:46.089Z,1.90
2022-08-02T07:32:14.212Z,4.32
2022-08-02T07:34:42.429Z,3.60
2022-08-02T07:37:17.675Z,2.08
2022-08-02T07:39:55.693Z,2.17
2022-08-02T07:42:22.817Z,2.63
2022-08-02T07:44:49.394Z,3.35
2022-08-02T07:47:15.974Z,2.13
2022-08-02T07:49:42.358Z,3.33
2022-08-02T07:52:09.357Z,2.60
2022-08-02T07:54:35.889Z,2.55
2022-08-02T07:57:02.300Z,4.13
2022-08-02T07:59:28.685Z,2.28
2022-08-02T08:01:55.803Z,5.22
2022-08-02T08:04:22.217Z,2.47
2022-08-02T08:06:51.881Z,2.10
2022-08-02T08:09:19.146Z,2.50
2022-08-02T08:11:45.578Z,1.80
2022-08-02T08:14:16.313Z,3.03
2022-08-02T08:16:43.244Z,2.65
2022-08-02T08:19:09.603Z,1.40
2022-08-02T08:21:35.957Z,1.80
2022-08-02T08:24:02.363Z,4.30
2022-08-02T08:26:28.722Z,3.08
2022-08-02T08:28:55.030Z,3.20
2022-08-02T08:31:21.389Z,2.70
2022-08-02T08:33:47.909Z,2.85
2022-08-02T08:36:16.448Z,2.20
2022-08-02T08:38:42.801Z,2.88
2022-08-02T08:41:09.137Z,2.70
2022-08-02T08:43:36.680Z,3.10
2022-08-02T08:46:03.462Z,2.33
2022-08-02T08:48:32.944Z,2.67
2022-08-02T08:51:06.958Z,3.45
2022-08-02T08:53:37.133Z,1.75
2022-08-02T08:56:03.613Z,3.30
2022-08-02T08:58:30.036Z,3.30
2022-08-02T09:00:56.631Z,1.63
2022-08-02T09:03:23.053Z,1.83
2022-08-02T09:05:50.329Z,1.95
2022-08-02T09:08:18.751Z,2.55
2022-08-02T09:10:46.821Z,3.13
2022-08-02T09:13:38.894Z,3.28
2022-08-02T09:16:11.359Z,1.40
2022-08-02T09:18:41.163Z,2.00
2022-08-02T09:21:08.942Z,4.78
2022-08-02T09:23:36.500Z,3.22
2022-08-02T09:26:07.415Z,2.17
2022-08-02T09:28:35.707Z,1.98
2022-08-02T09:31:09.603Z,3.22
2022-08-02T09:33:36.757Z,1.80
2022-08-02T09:36:06.526Z,2.13
2022-08-02T09:38:34.899Z,1.83
2022-08-02T09:41:01.620Z,3.55
2022-08-02T09:43:35.399Z,2.45
2022-08-02T09:48:28.073Z,2.30
2022-08-02T09:50:56.166Z,2.47
2022-08-02T09:53:23.250Z,3.05
2022-08-02T09:55:56.004Z,3.45
2022-08-02T09:58:22.409Z,2.67
2022-08-02T10:00:55.610Z,2.03
2022-08-02T10:03:22.913Z,4.03
2022-08-02T10:05:56.183Z,2.67
2022-08-02T10:08:26.802Z,1.60
2022-08-02T10:11:02.397Z,3.70
2022-08-02T10:13:32.647Z,1.60
2022-08-02T10:15:59.359Z,3.60
2022-08-02T10:18:38.288Z,1.92
2022-08-02T10:21:06.903Z,2.35
2022-08-02T10:23:34.445Z,1.88
2022-08-02T10:26:03.121Z,1.75
2022-08-02T10:28:32.545Z,1.55
2022-08-02T10:31:03.575Z,1.50
2022-08-02T10:33:32.975Z,2.50
2022-08-02T10:36:04.273Z,2.33
2022-08-02T10:38:33.925Z,1.88
2022-08-02T10:41:00.500Z,1.55
2022-08-02T10:43:35.957Z,2.13
2022-08-02T10:46:20.669Z,1.67
2022-08-02T10:49:13.757Z,1.65
2022-08-02T10:51:51.950Z,1.50
2022-08-02T10:54:20.670Z,2.40
2022-08-02T10:56:48.400Z,1.83
2022-08-02T10:59:31.661Z,1.70
2022-08-02T11:02:02.445Z,1.77
2022-08-02T11:04:29.830Z,1.77
2022-08-02T11:07:17.095Z,3.90
2022-08-02T11:09:47.538Z,2.05
2022-08-02T11:12:15.363Z,2.97
2022-08-02T11:14:43.157Z,1.73
2022-08-02T11:17:09.613Z,3.58
2022-08-02T11:19:55.934Z,1.90
2022-08-02T11:22:25.949Z,2.55
2022-08-02T11:24:52.575Z,3.53
2022-08-02T11:27:21.938Z,1.95
2022-08-02T11:29:49.612Z,2.10
2022-08-02T11:32:21.146Z,2.70
2022-08-02T11:34:48.991Z,1.90
2022-08-02T11:37:28.464Z,1.70
2022-08-02T11:39:54.864Z,1.88
2022-08-02T11:42:21.206Z,2.15
2022-08-02T11:44:49.133Z,2.17
2022-08-02T11:47:15.490Z,1.60
2022-08-02T11:49:42.745Z,2.83
2022-08-02T11:52:10.934Z,2.00
2022-08-02T11:54:40.355Z,1.67
2022-08-02T11:57:21.138Z,3.13
2022-08-02T11:59:55.129Z,6.20
2022-08-02T12:05:05.012Z,2.47
2022-08-02T12:07:45.850Z,2.03
2022-08-02T12:10:18.687Z,4.13
2022-08-02T12:12:48.989Z,2.30
2022-08-02T12:15:15.587Z,3.13
2022-08-02T12:18:05.377Z,2.30
2022-08-02T12:20:35.818Z,3.50
2022-08-02T12:23:02.743Z,3.63
2022-08-02T12:25:33.407Z,3.92
2022-08-02T12:28:19.762Z,2.42
2022-08-02T12:30:53.749Z,4.13
2022-08-02T12:33:20.762Z,3.80
2022-08-02T12:35:47.230Z,2.22
2022-08-02T12:38:13.636Z,2.55
2022-08-02T12:40:40.117Z,2.28
2022-08-02T12:43:07.540Z,2.33
2022-08-02T12:45:48.628Z,2.25
2022-08-02T12:48:36.483Z,2.00
2022-08-02T12:51:23.897Z,2.95
2022-08-02T12:53:59.665Z,2.95
2022-08-02T13:00:24.627Z,2.80
2022-08-02T13:02:51.009Z,1.95
2022-08-02T13:05:17.302Z,1.80
2022-08-02T13:07:43.594Z,2.65
2022-08-02T13:10:09.969Z,2.75
2022-08-02T13:12:37.371Z,1.83
2022-08-02T13:15:03.856Z,3.55
2022-08-02T13:17:39.294Z,4.85
2022-08-02T13:20:06.466Z,2.10
2022-08-02T13:22:37.667Z,1.70
2022-08-02T13:25:20.528Z,3.20
2022-08-02T13:27:46.928Z,3.22
2022-08-02T13:30:13.223Z,2.10
2022-08-02T13:32:39.558Z,3.13
2022-08-02T13:35:06.007Z,2.35
2022-08-02T13:37:32.482Z,1.80
2022-08-02T13:40:21.231Z,5.70
2022-08-02T13:42:48.757Z,1.70
2022-08-02T13:45:15.123Z,4.35
2022-08-02T13:48:03.369Z,1.80
2022-08-02T13:50:30.072Z,5.38
2022-08-02T13:52:56.383Z,2.28
2022-08-02T13:55:22.784Z,2.70
2022-08-02T13:57:53.443Z,1.90
2022-08-02T14:00:20.309Z,2.15
2022-08-02T14:03:02.259Z,2.53
2022-08-02T14:05:39.123Z,2.03
2022-08-02T14:08:16.666Z,2.15
2022-08-02T14:10:43.983Z,1.80
2022-08-02T14:13:10.304Z,2.10
2022-08-02T14:15:36.663Z,3.35
2022-08-02T14:18:03.150Z,1.98
2022-08-02T14:20:30.375Z,2.88
2022-08-02T14:22:57.078Z,2.33
2022-08-02T14:25:23.533Z,3.38
2022-08-02T14:27:49.881Z,2.10
2022-08-02T14:30:16.736Z,4.05
2022-08-02T14:32:43.384Z,1.98
2022-08-02T14:35:09.761Z,2.00
2022-08-02T14:37:36.141Z,3.00
2022-08-02T14:40:02.686Z,1.65
2022-08-02T14:42:29.088Z,2.22
2022-08-02T14:44:55.488Z,2.13
2022-08-02T14:47:21.955Z,2.10
2022-08-02T14:49:50.272Z,1.85
2022-08-02T14:52:17.087Z,2.92
2022-08-02T14:54:43.417Z,1.88
2022-08-02T14:57:09.833Z,3.03
2022-08-02T14:59:36.275Z,1.67
2022-08-02T15:02:09.215Z,1.83
2022-08-02T15:04:42.438Z,2.90
2022-08-02T15:07:09.456Z,3.43
2022-08-02T15:09:35.803Z,1.85
2022-08-02T15:12:06.433Z,2.65
2022-08-02T15:14:32.864Z,3.20
2022-08-02T15:16:59.338Z,1.70
2022-08-02T15:19:41.625Z,2.00
2022-08-02T15:22:16.141Z,2.20
2022-08-02T15:24:44.138Z,3.40
2022-08-02T15:27:13.436Z,5.22
2022-08-02T15:29:40.042Z,2.20
2022-08-02T15:32:06.726Z,4.30
2022-08-02T15:34:33.169Z,3.25
2022-08-02T15:36:59.530Z,2.17
2022-08-02T15:39:25.858Z,2.35
2022-08-02T15:41:52.312Z,2.60
2022-08-02T15:44:18.701Z,2.30
2022-08-02T15:46:45.068Z,2.45
2022-08-02T15:49:11.572Z,2.50
2022-08-02T15:51:38.015Z,4.70
2022-08-02T15:54:04.383Z,2.65
2022-08-02T15:56:30.754Z,2.17
2022-08-02T15:58:58.990Z,2.50
2022-08-02T16:01:25.840Z,3.22
2022-08-02T16:04:03.657Z,2.05
2022-08-02T16:06:30.057Z,4.90
2022-08-02T16:08:56.490Z,3.53
2022-08-02T16:11:22.891Z,2.97
2022-08-02T16:13:55.552Z,2.45
2022-08-02T16:16:22.906Z,1.60
2022-08-02T16:18:49.275Z,3.58
2022-08-02T16:21:15.855Z,2.13
2022-08-02T16:24:01.969Z,2.45
2022-08-02T16:26:29.662Z,1.83
2022-08-02T16:28:56.799Z,2.05
2022-08-02T16:31:23.786Z,2.00
2022-08-02T16:33:50.151Z,1.75
2022-08-02T16:36:19.268Z,3.15
2022-08-02T16:38:45.973Z,2.08
2022-08-02T16:41:12.296Z,2.58
2022-08-02T16:43:42.602Z,4.50
2022-08-02T16:46:10.051Z,1.77
2022-08-02T16:48:36.610Z,3.05
2022-08-02T16:51:03.018Z,4.68
2022-08-02T16:53:36.832Z,4.03
2022-08-02T16:56:04.190Z,1.80
2022-08-02T16:58:30.532Z,2.35
2022-08-02T17:00:56.891Z,1.98
2022-08-02T17:03:24.210Z,1.90
2022-08-02T17:06:10.532Z,3.40
2022-08-02T17:08:50.870Z,2.47
2022-08-02T17:11:21.008Z,3.08
2022-08-02T17:13:50.810Z,3.35
2022-08-02T17:16:20.966Z,3.47
2022-08-02T17:18:53.715Z,1.70
2022-08-02T17:21:20.118Z,2.88
2022-08-02T17:24:04.292Z,5.97
2022-08-02T17:26:32.957Z,3.00
2022-08-02T17:32:05.006Z,4.88
2022-08-02T17:34:34.466Z,4.95
2022-08-02T17:37:00.814Z,1.98
2022-08-02T17:39:29.354Z,3.95
2022-08-02T17:42:15.406Z,2.03
2022-08-02T17:44:49.202Z,1.67
2022-08-02T17:47:15.939Z,1.77
2022-08-02T17:49:48.124Z,1.70
2022-08-02T17:52:50.797Z,2.80
2022-08-02T17:55:03.489Z,1.45
2022-08-02T18:00:16.770Z,2.00
2022-08-02T18:02:43.277Z,2.33
2022-08-02T18:05:19.355Z,1.75
2022-08-02T18:07:50.119Z,3.45
2022-08-02T18:10:19.733Z,1.90
2022-08-02T18:12:47.039Z,2.65
2022-08-02T18:15:15.468Z,3.70
2022-08-02T18:17:42.061Z,1.90
2022-08-02T18:20:11.058Z,2.72
2022-08-02T18:22:39.634Z,3.85
2022-08-02T18:25:09.093Z,2.25
2022-08-02T18:27:35.582Z,2.10
2022-08-02T18:30:05.589Z,3.45
2022-08-02T18:33:54.249Z,3.50
2022-08-02T18:35:18.734Z,3.28
2022-08-02T18:37:50.338Z,1.63
2022-08-02T18:40:23.566Z,4.68
2022-08-02T18:42:49.891Z,6.28
2022-08-02T18:45:19.573Z,2.55
2022-08-02T18:50:32.905Z,2.78
2022-08-02T18:52:59.279Z,4.60
2022-08-02T18:56:00.012Z,2.15
2022-08-02T18:58:19.333Z,2.28
2022-08-02T19:00:47.384Z,3.53
2022-08-02T19:03:18.834Z,3.25
2022-08-02T19:05:53.213Z,2.38
2022-08-02T19:08:20.427Z,5.05
2022-08-02T19:10:52.947Z,4.20
2022-08-02T19:13:19.359Z,8.68
2022-08-02T19:15:46.552Z,9.48
2022-08-02T19:18:14.281Z,2.50
2022-08-02T19:20:40.671Z,3.17
2022-08-02T19:25:45.218Z,2.42
2022-08-02T19:28:16.881Z,2.47
2022-08-02T19:30:52.818Z,2.20
2022-08-02T19:33:54.530Z,4.47
2022-08-02T19:36:06.479Z,3.47
2022-08-02T19:38:32.828Z,3.85
2022-08-02T19:40:59.518Z,5.53
2022-08-02T19:44:25.925Z,3.30
2022-08-02T19:46:16.000Z,3.10
2022-08-02T19:48:42.681Z,2.20
2022-08-02T19:51:12.789Z,2.00
2022-08-02T19:53:46.659Z,2.05
2022-08-02T19:56:20.228Z,3.97
2022-08-02T19:58:48.445Z,3.97
2022-08-02T20:01:17.320Z,5.25
2022-08-02T20:03:52.544Z,2.72
2022-08-02T20:06:19.767Z,2.40
2022-08-02T20:08:57.215Z,4.05
2022-08-02T20:11:25.825Z,3.63
2022-08-02T20:13:53.352Z,9.15
2022-08-02T20:16:27.473Z,10.68
2022-08-02T20:18:55.317Z,9.82
2022-08-02T20:21:35.803Z,8.82
2022-08-02T20:24:06.626Z,6.05
2022-08-02T20:26:33.050Z,7.32
2022-08-02T20:29:02.490Z,7.90
2022-08-02T20:31:29.930Z,5.03
2022-08-02T20:33:56.856Z,3.28
2022-08-02T20:36:23.626Z,3.80
2022-08-02T20:38:50.121Z,2.65
2022-08-02T20:41:20.239Z,3.78
2022-08-02T20:43:48.646Z,2.25
2022-08-02T20:46:16.276Z,2.00
2022-08-02T20:48:44.932Z,2.80
2022-08-02T20:51:12.115Z,1.85
2022-08-02T20:53:54.777Z,3.05
2022-08-02T20:56:23.122Z,2.63
2022-08-02T20:58:52.204Z,3.65
2022-08-02T21:01:21.177Z,2.38
2022-08-02T21:03:58.500Z,3.22
2022-08-02T21:06:25.637Z,3.38
2022-08-02T21:08:54.927Z,2.85
2022-08-02T21:11:25.589Z,4.13
2022-08-02T21:14:06.482Z,3.28
2022-08-02T21:16:35.856Z,2.55
2022-08-02T21:19:02.432Z,2.30
2022-08-02T21:21:29.619Z,2.35
2022-08-02T21:23:56.598Z,2.50
2022-08-02T21:26:28.024Z,2.22
2022-08-02T21:28:57.947Z,3.85
2022-08-02T21:31:29.719Z,3.40
2022-08-02T21:33:59.328Z,3.80
2022-08-02T21:36:32.671Z,2.25
2022-08-02T21:39:08.974Z,2.00
2022-08-02T21:44:22.896Z,2.20
2022-08-02T21:46:53.363Z,3.33
2022-08-02T21:49:27.079Z,4.38
2022-08-02T21:51:54.540Z,2.42
2022-08-02T21:54:21.755Z,3.85
2022-08-02T21:56:48.986Z,3.40
2022-08-02T21:59:16.759Z,3.38
2022-08-02T22:01:52.747Z,2.72
2022-08-02T22:04:20.314Z,4.00
2022-08-02T22:06:46.968Z,3.15
2022-08-02T22:09:17.610Z,5.00
2022-08-02T22:12:01.994Z,2.78
2022-08-02T22:14:29.066Z,2.65
2022-08-02T22:16:55.687Z,3.63
2022-08-02T22:19:22.584Z,2.40
2022-08-02T22:21:55.304Z,2.90
2022-08-02T22:24:30.073Z,4.10
2022-08-02T22:26:57.320Z,5.57
2022-08-02T22:29:23.750Z,4.85
2022-08-02T22:31:50.217Z,2.72
2022-08-02T22:34:37.182Z,3.35
2022-08-02T22:37:05.721Z,5.40
2022-08-02T22:39:33.790Z,2.78
2022-08-02T22:42:06.324Z,3.17
2022-08-02T22:44:34.090Z,3.00
2022-08-02T22:47:07.061Z,2.80
2022-08-02T22:49:44.645Z,2.88
2022-08-02T22:52:20.167Z,3.03
2022-08-02T22:54:47.445Z,2.92
2022-08-02T22:57:13.806Z,2.72
2022-08-02T22:58:38.702Z,3.30
2022-08-02T22:58:41.285Z,1.77
2022-08-02T22:58:57.041Z,2.38
2022-08-02T22:59:03.342Z,2.58
2022-08-02T22:59:41.006Z,2.83
2022-08-02T23:02:08.144Z,3.28
2022-08-02T23:04:34.486Z,3.65
2022-08-02T23:07:00.819Z,3.03
2022-08-02T23:09:27.279Z,4.38
2022-08-02T23:11:53.771Z,3.75
2022-08-02T23:14:20.136Z,4.75
2022-08-02T23:17:05.208Z,3.47
2022-08-02T23:19:50.097Z,3.50
2022-08-02T23:22:17.216Z,3.45
2022-08-02T23:24:45.574Z,2.90
2022-08-02T23:27:11.941Z,4.93
2022-08-02T23:29:38.323Z,5.07
2022-08-02T23:32:04.923Z,3.53
2022-08-02T23:34:32.887Z,3.05
2022-08-02T23:36:59.318Z,3.40
2022-08-02T23:39:25.668Z,3.03
2022-08-02T23:41:54.847Z,3.42
2022-08-02T23:44:21.330Z,4.35
2022-08-02T23:46:47.652Z,5.68
2022-08-02T23:49:14.051Z,3.42
2022-08-02T23:51:40.448Z,3.15
2022-08-02T23:54:06.794Z,3.38
2022-08-02T23:56:33.137Z,3.30
2022-08-02T23:58:59.457Z,3.10
